sensor_id;sensor_type;location;lat;lon;timestamp;pressure;altitude;pressure_sealevel;temperature;humidity
70198;BME280;57582;-34.876;138.628;2022-08-19T00:02:45;101550;;;13.17;72.46
70198;BME280;57582;-34.876;138.628;2022-08-19T00:05:44;101550;;;13.34;71.91
70198;BME280;57582;-34.876;138.628;2022-08-19T00:08:44;101550;;;13.39;73.70
70198;BME280;57582;-34.876;138.628;2022-08-19T00:11:44;101554;;;13.38;72.97
70198;BME280;57582;-34.876;138.628;2022-08-19T00:14:45;101542;;;13.47;71.23
70198;BME280;57582;-34.876;138.628;2022-08-19T00:17:44;101540;;;13.64;73.18
70198;BME280;57582;-34.876;138.628;2022-08-19T00:20:44;101538;;;13.80;72.79
70198;BME280;57582;-34.876;138.628;2022-08-19T00:23:44;101544;;;13.89;69.83
70198;BME280;57582;-34.876;138.628;2022-08-19T00:26:45;101537;;;13.96;66.66
70198;BME280;57582;-34.876;138.628;2022-08-19T00:29:44;101551;;;14.17;67.31
70198;BME280;57582;-34.876;138.628;2022-08-19T00:32:44;101542;;;14.25;63.09
70198;BME280;57582;-34.876;138.628;2022-08-19T00:35:44;101536;;;14.34;64.67
70198;BME280;57582;-34.876;138.628;2022-08-19T00:38:45;101544;;;14.47;64.43
70198;BME280;57582;-34.876;138.628;2022-08-19T00:41:44;101540;;;14.44;63.46
70198;BME280;57582;-34.876;138.628;2022-08-19T00:44:44;101543;;;14.53;63.36
70198;BME280;57582;-34.876;138.628;2022-08-19T00:47:44;101547;;;14.63;62.10
70198;BME280;57582;-34.876;138.628;2022-08-19T00:50:45;101553;;;14.70;62.49
70198;BME280;57582;-34.876;138.628;2022-08-19T00:53:44;101552;;;14.82;62.07
70198;BME280;57582;-34.876;138.628;2022-08-19T00:56:45;101551;;;14.87;61.46
70198;BME280;57582;-34.876;138.628;2022-08-19T00:59:45;101544;;;14.74;62.02
70198;BME280;57582;-34.876;138.628;2022-08-19T01:02:45;101547;;;14.89;60.75
70198;BME280;57582;-34.876;138.628;2022-08-19T01:05:45;101550;;;14.91;62.10
70198;BME280;57582;-34.876;138.628;2022-08-19T01:08:44;101538;;;15.09;61.90
70198;BME280;57582;-34.876;138.628;2022-08-19T01:11:44;101535;;;15.26;61.47
70198;BME280;57582;-34.876;138.628;2022-08-19T01:14:45;101534;;;15.31;59.63
70198;BME280;57582;-34.876;138.628;2022-08-19T01:17:44;101534;;;15.30;60.01
70198;BME280;57582;-34.876;138.628;2022-08-19T01:20:45;101534;;;15.39;61.09
70198;BME280;57582;-34.876;138.628;2022-08-19T01:23:44;101532;;;15.45;60.05
70198;BME280;57582;-34.876;138.628;2022-08-19T01:26:45;101525;;;15.62;59.53
70198;BME280;57582;-34.876;138.628;2022-08-19T01:29:44;101531;;;15.56;60.17
70198;BME280;57582;-34.876;138.628;2022-08-19T01:32:45;101531;;;15.60;60.77
70198;BME280;57582;-34.876;138.628;2022-08-19T01:35:44;101528;;;15.57;62.25
70198;BME280;57582;-34.876;138.628;2022-08-19T01:38:45;101529;;;15.50;62.40
70198;BME280;57582;-34.876;138.628;2022-08-19T01:41:44;101523;;;15.54;62.31
70198;BME280;57582;-34.876;138.628;2022-08-19T01:44:45;101521;;;15.62;59.77
70198;BME280;57582;-34.876;138.628;2022-08-19T01:47:44;101520;;;15.63;59.37
70198;BME280;57582;-34.876;138.628;2022-08-19T01:50:45;101517;;;15.65;60.92
70198;BME280;57582;-34.876;138.628;2022-08-19T01:53:46;101506;;;15.70;60.97
70198;BME280;57582;-34.876;138.628;2022-08-19T01:56:45;101510;;;15.87;61.20
70198;BME280;57582;-34.876;138.628;2022-08-19T01:59:44;101510;;;15.93;60.32
70198;BME280;57582;-34.876;138.628;2022-08-19T02:02:45;101521;;;15.99;60.83
70198;BME280;57582;-34.876;138.628;2022-08-19T02:05:44;101515;;;15.96;60.20
70198;BME280;57582;-34.876;138.628;2022-08-19T02:08:45;101518;;;15.99;60.22
70198;BME280;57582;-34.876;138.628;2022-08-19T02:11:44;101512;;;15.97;61.18
70198;BME280;57582;-34.876;138.628;2022-08-19T02:14:45;101511;;;16.00;60.25
70198;BME280;57582;-34.876;138.628;2022-08-19T02:17:45;101504;;;16.16;58.89
70198;BME280;57582;-34.876;138.628;2022-08-19T02:20:45;101505;;;16.07;58.13
70198;BME280;57582;-34.876;138.628;2022-08-19T02:23:44;101507;;;16.08;57.97
70198;BME280;57582;-34.876;138.628;2022-08-19T02:26:45;101517;;;16.00;58.59
70198;BME280;57582;-34.876;138.628;2022-08-19T02:29:45;101508;;;16.07;57.60
70198;BME280;57582;-34.876;138.628;2022-08-19T02:32:45;101518;;;16.01;57.66
70198;BME280;57582;-34.876;138.628;2022-08-19T02:35:45;101516;;;16.13;58.08
70198;BME280;57582;-34.876;138.628;2022-08-19T02:38:45;101510;;;16.21;58.05
70198;BME280;57582;-34.876;138.628;2022-08-19T02:41:44;101506;;;16.07;57.42
70198;BME280;57582;-34.876;138.628;2022-08-19T02:44:45;101508;;;16.05;56.73
70198;BME280;57582;-34.876;138.628;2022-08-19T02:47:44;101508;;;15.82;57.11
70198;BME280;57582;-34.876;138.628;2022-08-19T02:50:45;101500;;;15.74;57.15
70198;BME280;57582;-34.876;138.628;2022-08-19T02:53:44;101498;;;15.73;57.22
70198;BME280;57582;-34.876;138.628;2022-08-19T02:56:45;101488;;;15.83;57.52
70198;BME280;57582;-34.876;138.628;2022-08-19T02:59:44;101491;;;15.71;56.96
70198;BME280;57582;-34.876;138.628;2022-08-19T03:02:45;101480;;;15.82;56.76
70198;BME280;57582;-34.876;138.628;2022-08-19T03:05:44;101474;;;15.78;56.15
70198;BME280;57582;-34.876;138.628;2022-08-19T03:08:45;101468;;;15.75;56.09
70198;BME280;57582;-34.876;138.628;2022-08-19T03:11:44;101469;;;15.69;56.51
70198;BME280;57582;-34.876;138.628;2022-08-19T03:14:45;101466;;;15.64;56.77
70198;BME280;57582;-34.876;138.628;2022-08-19T03:17:45;101461;;;15.67;56.34
70198;BME280;57582;-34.876;138.628;2022-08-19T03:20:50;101466;;;15.68;56.85
70198;BME280;57582;-34.876;138.628;2022-08-19T03:23:45;101471;;;15.70;56.98
70198;BME280;57582;-34.876;138.628;2022-08-19T03:26:46;101466;;;15.86;57.04
70198;BME280;57582;-34.876;138.628;2022-08-19T03:29:44;101478;;;15.84;57.08
70198;BME280;57582;-34.876;138.628;2022-08-19T03:32:45;101470;;;15.71;57.07
70198;BME280;57582;-34.876;138.628;2022-08-19T03:35:44;101468;;;15.73;56.95
70198;BME280;57582;-34.876;138.628;2022-08-19T03:38:46;101457;;;15.68;56.97
70198;BME280;57582;-34.876;138.628;2022-08-19T03:41:45;101461;;;15.75;56.87
70198;BME280;57582;-34.876;138.628;2022-08-19T03:44:45;101454;;;15.71;56.86
70198;BME280;57582;-34.876;138.628;2022-08-19T03:47:44;101460;;;15.57;57.02
70198;BME280;57582;-34.876;138.628;2022-08-19T03:50:45;101450;;;15.49;57.67
70198;BME280;57582;-34.876;138.628;2022-08-19T03:53:45;101459;;;15.53;58.31
70198;BME280;57582;-34.876;138.628;2022-08-19T03:56:46;101452;;;15.46;58.33
70198;BME280;57582;-34.876;138.628;2022-08-19T03:59:44;101449;;;15.52;59.18
70198;BME280;57582;-34.876;138.628;2022-08-19T04:02:45;101450;;;15.56;59.30
70198;BME280;57582;-34.876;138.628;2022-08-19T04:05:45;101441;;;15.60;59.25
70198;BME280;57582;-34.876;138.628;2022-08-19T04:08:45;101441;;;15.68;58.50
70198;BME280;57582;-34.876;138.628;2022-08-19T04:11:47;101445;;;15.38;60.06
70198;BME280;57582;-34.876;138.628;2022-08-19T04:14:45;101435;;;15.49;60.07
70198;BME280;57582;-34.876;138.628;2022-08-19T04:17:44;101437;;;15.42;60.14
70198;BME280;57582;-34.876;138.628;2022-08-19T04:20:46;101432;;;15.40;59.80
70198;BME280;57582;-34.876;138.628;2022-08-19T04:23:45;101439;;;15.39;60.18
70198;BME280;57582;-34.876;138.628;2022-08-19T04:26:46;101440;;;15.27;60.68
70198;BME280;57582;-34.876;138.628;2022-08-19T04:29:44;101432;;;15.26;60.79
70198;BME280;57582;-34.876;138.628;2022-08-19T04:32:45;101433;;;15.36;61.03
70198;BME280;57582;-34.876;138.628;2022-08-19T04:35:46;101434;;;15.45;59.77
70198;BME280;57582;-34.876;138.628;2022-08-19T04:38:45;101420;;;15.70;59.22
70198;BME280;57582;-34.876;138.628;2022-08-19T04:41:45;101425;;;15.85;58.08
70198;BME280;57582;-34.876;138.628;2022-08-19T04:44:45;101416;;;15.98;58.38
70198;BME280;57582;-34.876;138.628;2022-08-19T04:47:45;101431;;;16.13;58.34
70198;BME280;57582;-34.876;138.628;2022-08-19T04:50:45;101430;;;16.25;58.06
70198;BME280;57582;-34.876;138.628;2022-08-19T04:53:45;101426;;;16.05;57.40
70198;BME280;57582;-34.876;138.628;2022-08-19T04:56:45;101426;;;16.02;58.31
70198;BME280;57582;-34.876;138.628;2022-08-19T04:59:45;101427;;;16.10;57.61
70198;BME280;57582;-34.876;138.628;2022-08-19T05:02:45;101415;;;15.93;58.61
70198;BME280;57582;-34.876;138.628;2022-08-19T05:05:45;101419;;;15.69;59.11
70198;BME280;57582;-34.876;138.628;2022-08-19T05:08:45;101421;;;15.69;59.12
70198;BME280;57582;-34.876;138.628;2022-08-19T05:11:45;101425;;;15.65;59.91
70198;BME280;57582;-34.876;138.628;2022-08-19T05:14:45;101422;;;15.65;60.16
70198;BME280;57582;-34.876;138.628;2022-08-19T05:17:45;101423;;;15.59;60.29
70198;BME280;57582;-34.876;138.628;2022-08-19T05:20:45;101423;;;15.48;60.37
70198;BME280;57582;-34.876;138.628;2022-08-19T05:23:45;101417;;;15.47;61.02
70198;BME280;57582;-34.876;138.628;2022-08-19T05:26:46;101413;;;15.45;60.87
70198;BME280;57582;-34.876;138.628;2022-08-19T05:29:45;101418;;;15.45;61.50
70198;BME280;57582;-34.876;138.628;2022-08-19T05:32:45;101407;;;15.32;61.49
70198;BME280;57582;-34.876;138.628;2022-08-19T05:35:45;101409;;;15.26;62.15
70198;BME280;57582;-34.876;138.628;2022-08-19T05:38:45;101405;;;15.30;62.19
70198;BME280;57582;-34.876;138.628;2022-08-19T05:41:46;101407;;;15.43;62.29
70198;BME280;57582;-34.876;138.628;2022-08-19T05:44:45;101407;;;15.48;61.54
70198;BME280;57582;-34.876;138.628;2022-08-19T05:47:45;101417;;;15.48;62.12
70198;BME280;57582;-34.876;138.628;2022-08-19T05:50:45;101413;;;15.42;61.49
70198;BME280;57582;-34.876;138.628;2022-08-19T05:53:45;101405;;;15.47;61.90
70198;BME280;57582;-34.876;138.628;2022-08-19T05:56:45;101403;;;15.42;61.60
70198;BME280;57582;-34.876;138.628;2022-08-19T05:59:45;101396;;;15.45;61.31
70198;BME280;57582;-34.876;138.628;2022-08-19T06:02:45;101396;;;15.45;61.78
70198;BME280;57582;-34.876;138.628;2022-08-19T06:05:45;101401;;;15.43;61.81
70198;BME280;57582;-34.876;138.628;2022-08-19T06:08:45;101404;;;15.30;61.68
70198;BME280;57582;-34.876;138.628;2022-08-19T06:11:49;101391;;;15.12;62.13
70198;BME280;57582;-34.876;138.628;2022-08-19T06:14:45;101399;;;15.01;63.11
70198;BME280;57582;-34.876;138.628;2022-08-19T06:17:45;101403;;;15.06;63.12
70198;BME280;57582;-34.876;138.628;2022-08-19T06:20:45;101397;;;15.13;63.29
70198;BME280;57582;-34.876;138.628;2022-08-19T06:23:45;101396;;;14.96;65.25
70198;BME280;57582;-34.876;138.628;2022-08-19T06:26:46;101396;;;14.94;66.61
70198;BME280;57582;-34.876;138.628;2022-08-19T06:29:45;101392;;;14.94;67.01
70198;BME280;57582;-34.876;138.628;2022-08-19T06:32:45;101389;;;14.69;67.32
70198;BME280;57582;-34.876;138.628;2022-08-19T06:35:45;101398;;;14.76;67.10
70198;BME280;57582;-34.876;138.628;2022-08-19T06:38:45;101403;;;14.71;66.96
70198;BME280;57582;-34.876;138.628;2022-08-19T06:41:46;101398;;;14.71;66.76
70198;BME280;57582;-34.876;138.628;2022-08-19T06:44:46;101402;;;14.70;67.03
70198;BME280;57582;-34.876;138.628;2022-08-19T06:47:45;101396;;;14.71;66.78
70198;BME280;57582;-34.876;138.628;2022-08-19T06:50:45;101391;;;14.69;66.45
70198;BME280;57582;-34.876;138.628;2022-08-19T06:53:46;101390;;;14.63;66.71
70198;BME280;57582;-34.876;138.628;2022-08-19T06:56:45;101387;;;14.66;66.47
70198;BME280;57582;-34.876;138.628;2022-08-19T06:59:45;101390;;;14.54;66.93
70198;BME280;57582;-34.876;138.628;2022-08-19T07:02:45;101390;;;14.58;67.10
70198;BME280;57582;-34.876;138.628;2022-08-19T07:05:45;101389;;;14.59;67.32
70198;BME280;57582;-34.876;138.628;2022-08-19T07:08:45;101398;;;14.58;67.40
70198;BME280;57582;-34.876;138.628;2022-08-19T07:11:46;101394;;;14.62;67.45
70198;BME280;57582;-34.876;138.628;2022-08-19T07:14:45;101399;;;14.54;67.91
70198;BME280;57582;-34.876;138.628;2022-08-19T07:17:45;101390;;;14.55;67.92
70198;BME280;57582;-34.876;138.628;2022-08-19T07:20:45;101390;;;14.54;68.23
70198;BME280;57582;-34.876;138.628;2022-08-19T07:23:45;101407;;;14.44;68.75
70198;BME280;57582;-34.876;138.628;2022-08-19T07:26:45;101394;;;14.36;69.39
70198;BME280;57582;-34.876;138.628;2022-08-19T07:29:45;101406;;;14.47;70.25
70198;BME280;57582;-34.876;138.628;2022-08-19T07:32:45;101406;;;14.50;70.71
70198;BME280;57582;-34.876;138.628;2022-08-19T07:35:45;101407;;;14.41;71.36
70198;BME280;57582;-34.876;138.628;2022-08-19T07:38:46;101400;;;14.30;71.68
70198;BME280;57582;-34.876;138.628;2022-08-19T07:41:45;101408;;;14.26;71.88
70198;BME280;57582;-34.876;138.628;2022-08-19T07:44:45;101415;;;14.16;72.22
70198;BME280;57582;-34.876;138.628;2022-08-19T07:47:45;101417;;;14.08;72.15
70198;BME280;57582;-34.876;138.628;2022-08-19T07:50:45;101409;;;14.08;73.09
70198;BME280;57582;-34.876;138.628;2022-08-19T07:53:45;101418;;;14.22;73.20
70198;BME280;57582;-34.876;138.628;2022-08-19T07:56:45;101414;;;14.50;72.42
70198;BME280;57582;-34.876;138.628;2022-08-19T07:59:45;101416;;;14.75;74.21
70198;BME280;57582;-34.876;138.628;2022-08-19T08:02:45;101409;;;15.07;69.26
70198;BME280;57582;-34.876;138.628;2022-08-19T08:05:45;101412;;;15.17;68.75
70198;BME280;57582;-34.876;138.628;2022-08-19T08:08:45;101410;;;15.24;68.61
70198;BME280;57582;-34.876;138.628;2022-08-19T08:11:46;101418;;;15.19;68.55
70198;BME280;57582;-34.876;138.628;2022-08-19T08:14:46;101414;;;15.21;68.12
70198;BME280;57582;-34.876;138.628;2022-08-19T08:17:45;101417;;;15.15;68.21
70198;BME280;57582;-34.876;138.628;2022-08-19T08:20:46;101421;;;15.07;68.66
70198;BME280;57582;-34.876;138.628;2022-08-19T08:23:45;101419;;;14.93;68.90
70198;BME280;57582;-34.876;138.628;2022-08-19T08:26:45;101423;;;14.73;69.83
70198;BME280;57582;-34.876;138.628;2022-08-19T08:29:45;101436;;;14.71;70.06
70198;BME280;57582;-34.876;138.628;2022-08-19T08:32:46;101430;;;14.48;71.09
70198;BME280;57582;-34.876;138.628;2022-08-19T08:35:45;101436;;;14.34;72.03
70198;BME280;57582;-34.876;138.628;2022-08-19T08:38:45;101435;;;14.34;72.49
70198;BME280;57582;-34.876;138.628;2022-08-19T08:44:49;101423;;;14.42;72.79
70198;BME280;57582;-34.876;138.628;2022-08-19T08:47:47;101429;;;14.43;72.99
70198;BME280;57582;-34.876;138.628;2022-08-19T08:50:46;101434;;;14.41;73.04
70198;BME280;57582;-34.876;138.628;2022-08-19T08:53:45;101446;;;14.37;73.29
70198;BME280;57582;-34.876;138.628;2022-08-19T08:56:45;101442;;;14.27;73.83
70198;BME280;57582;-34.876;138.628;2022-08-19T08:59:45;101433;;;14.23;73.88
70198;BME280;57582;-34.876;138.628;2022-08-19T09:02:45;101439;;;14.25;73.82
70198;BME280;57582;-34.876;138.628;2022-08-19T09:05:49;101436;;;14.15;74.37
70198;BME280;57582;-34.876;138.628;2022-08-19T09:11:47;101434;;;14.02;75.07
70198;BME280;57582;-34.876;138.628;2022-08-19T09:17:45;101438;;;14.11;75.22
70198;BME280;57582;-34.876;138.628;2022-08-19T09:20:46;101445;;;14.10;75.21
70198;BME280;57582;-34.876;138.628;2022-08-19T09:23:46;101446;;;14.14;75.12
70198;BME280;57582;-34.876;138.628;2022-08-19T09:26:45;101452;;;14.14;75.05
70198;BME280;57582;-34.876;138.628;2022-08-19T09:29:45;101450;;;14.10;75.11
70198;BME280;57582;-34.876;138.628;2022-08-19T09:32:45;101456;;;14.04;75.40
70198;BME280;57582;-34.876;138.628;2022-08-19T09:35:45;101451;;;14.15;75.08
70198;BME280;57582;-34.876;138.628;2022-08-19T09:38:47;101455;;;14.16;75.18
70198;BME280;57582;-34.876;138.628;2022-08-19T09:41:45;101460;;;14.18;75.21
70198;BME280;57582;-34.876;138.628;2022-08-19T09:44:45;101451;;;14.09;75.59
70198;BME280;57582;-34.876;138.628;2022-08-19T09:47:45;101451;;;14.07;76.00
70198;BME280;57582;-34.876;138.628;2022-08-19T09:50:45;101448;;;14.07;76.08
70198;BME280;57582;-34.876;138.628;2022-08-19T09:53:45;101453;;;14.15;75.87
70198;BME280;57582;-34.876;138.628;2022-08-19T09:56:46;101457;;;14.06;76.62
70198;BME280;57582;-34.876;138.628;2022-08-19T09:59:45;101468;;;13.90;77.43
70198;BME280;57582;-34.876;138.628;2022-08-19T10:02:45;101461;;;13.94;77.02
70198;BME280;57582;-34.876;138.628;2022-08-19T10:05:45;101467;;;13.99;77.02
70198;BME280;57582;-34.876;138.628;2022-08-19T10:08:45;101467;;;13.93;77.10
70198;BME280;57582;-34.876;138.628;2022-08-19T10:11:45;101465;;;14.00;76.97
70198;BME280;57582;-34.876;138.628;2022-08-19T10:14:46;101472;;;13.88;77.42
70198;BME280;57582;-34.876;138.628;2022-08-19T10:17:45;101472;;;13.99;77.08
70198;BME280;57582;-34.876;138.628;2022-08-19T10:20:46;101472;;;14.04;77.00
70198;BME280;57582;-34.876;138.628;2022-08-19T10:23:46;101471;;;14.03;77.01
70198;BME280;57582;-34.876;138.628;2022-08-19T10:26:45;101484;;;13.93;77.50
70198;BME280;57582;-34.876;138.628;2022-08-19T10:29:45;101490;;;13.87;77.93
70198;BME280;57582;-34.876;138.628;2022-08-19T10:32:46;101486;;;13.91;77.97
70198;BME280;57582;-34.876;138.628;2022-08-19T10:35:45;101484;;;13.85;78.25
70198;BME280;57582;-34.876;138.628;2022-08-19T10:38:47;101488;;;13.89;78.27
70198;BME280;57582;-34.876;138.628;2022-08-19T10:41:45;101494;;;13.90;78.34
70198;BME280;57582;-34.876;138.628;2022-08-19T10:44:46;101491;;;13.88;78.51
70198;BME280;57582;-34.876;138.628;2022-08-19T10:47:45;101487;;;13.90;78.50
70198;BME280;57582;-34.876;138.628;2022-08-19T10:50:45;101499;;;13.80;78.92
70198;BME280;57582;-34.876;138.628;2022-08-19T10:53:45;101492;;;13.71;79.51
70198;BME280;57582;-34.876;138.628;2022-08-19T10:56:45;101501;;;13.71;79.57
70198;BME280;57582;-34.876;138.628;2022-08-19T10:59:45;101500;;;13.77;79.40
70198;BME280;57582;-34.876;138.628;2022-08-19T11:02:45;101505;;;13.77;79.40
70198;BME280;57582;-34.876;138.628;2022-08-19T11:05:45;101497;;;13.80;79.27
70198;BME280;57582;-34.876;138.628;2022-08-19T11:08:46;101496;;;13.83;78.89
70198;BME280;57582;-34.876;138.628;2022-08-19T11:11:45;101502;;;13.81;78.85
70198;BME280;57582;-34.876;138.628;2022-08-19T11:14:45;101504;;;13.81;78.81
70198;BME280;57582;-34.876;138.628;2022-08-19T11:17:45;101509;;;13.89;78.44
70198;BME280;57582;-34.876;138.628;2022-08-19T11:20:45;101517;;;13.97;78.15
70198;BME280;57582;-34.876;138.628;2022-08-19T11:23:46;101520;;;13.92;78.20
70198;BME280;57582;-34.876;138.628;2022-08-19T11:26:46;101517;;;13.87;78.16
70198;BME280;57582;-34.876;138.628;2022-08-19T11:29:45;101520;;;13.92;77.84
70198;BME280;57582;-34.876;138.628;2022-08-19T11:32:46;101515;;;13.96;77.56
70198;BME280;57582;-34.876;138.628;2022-08-19T11:35:45;101524;;;13.90;77.60
70198;BME280;57582;-34.876;138.628;2022-08-19T11:38:46;101528;;;13.81;77.87
70198;BME280;57582;-34.876;138.628;2022-08-19T11:41:45;101529;;;13.83;77.88
70198;BME280;57582;-34.876;138.628;2022-08-19T11:44:46;101536;;;13.88;77.77
70198;BME280;57582;-34.876;138.628;2022-08-19T11:47:45;101538;;;13.92;77.46
70198;BME280;57582;-34.876;138.628;2022-08-19T11:50:46;101544;;;13.92;76.96
70198;BME280;57582;-34.876;138.628;2022-08-19T11:53:45;101541;;;13.92;76.35
70198;BME280;57582;-34.876;138.628;2022-08-19T11:56:45;101532;;;13.88;76.09
70198;BME280;57582;-34.876;138.628;2022-08-19T11:59:49;101537;;;13.96;75.81
70198;BME280;57582;-34.876;138.628;2022-08-19T12:02:45;101542;;;13.99;75.41
70198;BME280;57582;-34.876;138.628;2022-08-19T12:05:45;101539;;;13.99;75.56
70198;BME280;57582;-34.876;138.628;2022-08-19T12:08:45;101536;;;14.11;75.14
70198;BME280;57582;-34.876;138.628;2022-08-19T12:11:45;101532;;;14.12;75.04
70198;BME280;57582;-34.876;138.628;2022-08-19T12:14:45;101536;;;14.03;75.56
70198;BME280;57582;-34.876;138.628;2022-08-19T12:17:45;101539;;;14.13;75.36
70198;BME280;57582;-34.876;138.628;2022-08-19T12:20:45;101540;;;14.21;75.23
70198;BME280;57582;-34.876;138.628;2022-08-19T12:23:45;101553;;;14.19;75.26
70198;BME280;57582;-34.876;138.628;2022-08-19T12:26:46;101543;;;14.25;75.11
70198;BME280;57582;-34.876;138.628;2022-08-19T12:29:45;101542;;;14.22;75.31
70198;BME280;57582;-34.876;138.628;2022-08-19T12:32:45;101543;;;14.29;74.97
70198;BME280;57582;-34.876;138.628;2022-08-19T12:35:45;101545;;;14.39;74.91
70198;BME280;57582;-34.876;138.628;2022-08-19T12:38:46;101536;;;14.47;74.77
70198;BME280;57582;-34.876;138.628;2022-08-19T12:41:45;101536;;;14.52;74.69
70198;BME280;57582;-34.876;138.628;2022-08-19T12:44:46;101546;;;14.40;75.59
70198;BME280;57582;-34.876;138.628;2022-08-19T12:47:45;101537;;;14.41;75.79
70198;BME280;57582;-34.876;138.628;2022-08-19T12:50:46;101533;;;14.45;75.86
70198;BME280;57582;-34.876;138.628;2022-08-19T12:53:46;101536;;;14.34;76.45
70198;BME280;57582;-34.876;138.628;2022-08-19T12:56:46;101539;;;14.39;76.22
70198;BME280;57582;-34.876;138.628;2022-08-19T12:59:45;101533;;;14.43;76.03
70198;BME280;57582;-34.876;138.628;2022-08-19T13:02:46;101527;;;14.46;75.98
70198;BME280;57582;-34.876;138.628;2022-08-19T13:05:45;101527;;;14.48;76.02
70198;BME280;57582;-34.876;138.628;2022-08-19T13:08:46;101529;;;14.49;76.44
70198;BME280;57582;-34.876;138.628;2022-08-19T13:11:45;101534;;;14.44;76.70
70198;BME280;57582;-34.876;138.628;2022-08-19T13:14:46;101533;;;14.43;76.86
70198;BME280;57582;-34.876;138.628;2022-08-19T13:17:46;101525;;;14.28;77.84
70198;BME280;57582;-34.876;138.628;2022-08-19T13:20:46;101522;;;14.21;78.38
70198;BME280;57582;-34.876;138.628;2022-08-19T13:23:45;101512;;;14.02;79.59
70198;BME280;57582;-34.876;138.628;2022-08-19T13:26:46;101519;;;13.93;79.95
70198;BME280;57582;-34.876;138.628;2022-08-19T13:29:46;101516;;;13.93;80.36
70198;BME280;57582;-34.876;138.628;2022-08-19T13:32:46;101517;;;14.00;80.03
70198;BME280;57582;-34.876;138.628;2022-08-19T13:35:48;101509;;;14.05;79.99
70198;BME280;57582;-34.876;138.628;2022-08-19T13:38:46;101512;;;14.11;79.61
70198;BME280;57582;-34.876;138.628;2022-08-19T13:41:46;101504;;;14.04;79.79
70198;BME280;57582;-34.876;138.628;2022-08-19T13:44:46;101513;;;14.01;79.91
70198;BME280;57582;-34.876;138.628;2022-08-19T13:47:46;101518;;;13.98;80.16
70198;BME280;57582;-34.876;138.628;2022-08-19T13:50:46;101511;;;13.95;80.21
70198;BME280;57582;-34.876;138.628;2022-08-19T13:53:45;101516;;;13.88;80.29
70198;BME280;57582;-34.876;138.628;2022-08-19T13:56:46;101518;;;13.86;80.24
70198;BME280;57582;-34.876;138.628;2022-08-19T13:59:45;101515;;;13.89;79.96
70198;BME280;57582;-34.876;138.628;2022-08-19T14:02:46;101517;;;13.95;79.35
70198;BME280;57582;-34.876;138.628;2022-08-19T14:05:45;101519;;;14.01;78.94
70198;BME280;57582;-34.876;138.628;2022-08-19T14:08:46;101516;;;13.90;79.20
70198;BME280;57582;-34.876;138.628;2022-08-19T14:11:45;101517;;;13.99;79.25
70198;BME280;57582;-34.876;138.628;2022-08-19T14:14:46;101518;;;14.07;79.75
70198;BME280;57582;-34.876;138.628;2022-08-19T14:17:45;101526;;;14.16;77.84
70198;BME280;57582;-34.876;138.628;2022-08-19T14:20:46;101523;;;14.33;77.77
70198;BME280;57582;-34.876;138.628;2022-08-19T14:23:45;101521;;;14.54;77.36
70198;BME280;57582;-34.876;138.628;2022-08-19T14:26:46;101516;;;14.62;76.56
70198;BME280;57582;-34.876;138.628;2022-08-19T14:29:45;101510;;;14.70;76.61
70198;BME280;57582;-34.876;138.628;2022-08-19T14:32:46;101515;;;14.83;75.14
70198;BME280;57582;-34.876;138.628;2022-08-19T14:35:45;101512;;;14.91;74.18
70198;BME280;57582;-34.876;138.628;2022-08-19T14:38:46;101517;;;14.99;73.80
70198;BME280;57582;-34.876;138.628;2022-08-19T14:41:45;101521;;;14.98;73.66
70198;BME280;57582;-34.876;138.628;2022-08-19T14:44:46;101510;;;14.73;74.41
70198;BME280;57582;-34.876;138.628;2022-08-19T14:47:45;101521;;;14.76;74.23
70198;BME280;57582;-34.876;138.628;2022-08-19T14:50:46;101528;;;14.74;74.17
70198;BME280;57582;-34.876;138.628;2022-08-19T14:53:45;101521;;;14.61;74.66
70198;BME280;57582;-34.876;138.628;2022-08-19T14:56:46;101524;;;14.48;75.36
70198;BME280;57582;-34.876;138.628;2022-08-19T14:59:45;101532;;;14.48;75.20
70198;BME280;57582;-34.876;138.628;2022-08-19T15:02:46;101530;;;14.43;75.43
70198;BME280;57582;-34.876;138.628;2022-08-19T15:05:45;101535;;;14.43;75.32
70198;BME280;57582;-34.876;138.628;2022-08-19T15:08:46;101540;;;14.41;75.54
70198;BME280;57582;-34.876;138.628;2022-08-19T15:11:45;101539;;;14.41;75.59
70198;BME280;57582;-34.876;138.628;2022-08-19T15:14:46;101538;;;14.46;75.78
70198;BME280;57582;-34.876;138.628;2022-08-19T15:17:45;101537;;;14.35;76.70
70198;BME280;57582;-34.876;138.628;2022-08-19T15:20:46;101531;;;14.44;76.35
70198;BME280;57582;-34.876;138.628;2022-08-19T15:23:45;101539;;;14.51;76.71
70198;BME280;57582;-34.876;138.628;2022-08-19T15:26:46;101544;;;14.47;76.97
70198;BME280;57582;-34.876;138.628;2022-08-19T15:29:45;101537;;;14.25;78.00
70198;BME280;57582;-34.876;138.628;2022-08-19T15:32:46;101547;;;14.18;78.61
70198;BME280;57582;-34.876;138.628;2022-08-19T15:35:46;101546;;;14.24;78.46
70198;BME280;57582;-34.876;138.628;2022-08-19T15:38:46;101536;;;14.37;78.01
70198;BME280;57582;-34.876;138.628;2022-08-19T15:41:46;101543;;;14.29;78.28
70198;BME280;57582;-34.876;138.628;2022-08-19T15:44:46;101542;;;14.22;78.62
70198;BME280;57582;-34.876;138.628;2022-08-19T15:47:46;101539;;;14.13;79.14
70198;BME280;57582;-34.876;138.628;2022-08-19T15:50:46;101535;;;14.18;79.04